Alabaster, Alabama
Current Conditions -  °F | °C
As of 7:53 PM on Friday 31 Oct 2014 (Local Time) from KEET Reporting Station
Overcast Overcast  
Wind Chill: 52°   Ceiling: 3900
Heat Index: 52°   Visibility: 10mi
Dew Point: 42°   Wind: 16mph
Humidity: 69%   Direction: 340°NNW
Pressure: 30.06"   Gusts: 29mph
Location:  33.25°N, 86.82°W
Report Text: KEET 010053Z AUTO 34014G25KT 10SM BKN039 OVC055 11/06 A3006 RMK AO2 PK WND 33027/0042 SLP178 T01110056
Loading
Personal Weather Stations






























Interactive Weather Map
Tropical Storm Tracking
New forecast layout! Learn more

10-Day Weather Forecast

Advertisements
Track Severe Weather on mobile